Latest Coastal Weather Observations for Holmes Reef

IDQ60701

Issued at 9:51 am EST Monday 8 February 2016 (issued every 10 minutes, with the page automatically refreshed every 10 minutes)

About coastal observations | Map of coastal stations | Coastal observations for QLD | Marine services | Other Formats
Station Details ID: 200732 Name: HOLMES REEF Lat: -16.47 Lon: 147.87 Height: 1.9 m
Data from the previous 72 hours. | See also: Recent months at Holmes Reef
Date/Time
EST
Temp

°C
Wind Pressure Rain
since 9am
mm
Weather Cloud Vis
km
Sea
Height
m
Swell
Dir
 
Speed
knots
Gust
knots
hPa Trend Height
m
Period
s
Dir
08/09:30am 29.9 W 9 10 1009.4 - - - - - - - - -
08/09:15am 29.9 W 10 - 1009.2 - - - - - - - - -
08/09:00am 29.8 W 9 10 1009.3 - - - - - - - - -
08/08:30am 29.9 W 9 10 1009.1 - - - - - - - - -
08/08:15am 30.0 W 8 - 1008.7 - - - - - - - - -
08/08:00am 30.0 W 10 11 1008.9 - - - - - - - - -
08/07:30am 29.9 WNW 8 9 1008.6 - - - - - - - - -
08/07:15am 29.9 W 7 - 1008.3 - - - - - - - - -
08/07:00am 29.7 W 8 9 1008.4 - - - - - - - - -
08/06:30am 29.6 WNW 10 11 1007.8 - - - - - - - - -
08/06:15am 29.7 WNW 10 - 1007.2 - - - - - - - - -
08/06:00am 29.7 WNW 10 11 1007.4 - - - - - - - - -
08/05:30am 29.5 WNW 10 11 1007.1 - - - - - - - - -
08/05:15am 29.6 WNW 11 - 1006.8 - - - - - - - - -
08/05:00am 29.6 WNW 12 13 1007.0 - - - - - - - - -
08/04:30am 29.6 WNW 11 13 1007.0 - - - - - - - - -
08/04:15am 29.5 NW 11 - 1006.6 - - - - - - - - -
08/04:00am 29.6 NW 11 13 1006.9 - - - - - - - - -
08/03:30am 29.6 NW 12 13 1006.9 - - - - - - - - -
08/03:15am 29.6 WNW 10 - 1006.6 - - - - - - - - -
08/03:00am 29.5 NW 9 10 1007.0 - - - - - - - - -
08/02:30am 29.7 NW 9 10 1007.0 - - - - - - - - -
08/02:15am 29.6 NW 8 - 1006.7 - - - - - - - - -
08/02:00am 29.6 NW 7 8 1007.2 - - - - - - - - -
08/01:30am 29.6 NW 7 8 1007.5 - - - - - - - - -
08/01:15am 29.5 NW 6 - 1007.4 - - - - - - - - -
08/01:00am 29.8 NW 7 8 1007.8 - - - - - - - - -
08/12:30am 29.7 NW 7 8 1008.1 - - - - - - - - -
08/12:15am 29.7 NW 7 - 1007.9 - - - - - - - - -
08/12:00am 29.8 WNW 7 8 1008.3 - - - - - - - - -
 
Date/Time
EST
Temp

°C
Wind Pressure Rain
since 9am
mm
Weather Cloud Vis
km
Sea
Height
m
Swell
Dir
 
Speed
knots
Gust
knots
hPa Trend Height
m
Period
s
Dir
07/11:30pm 29.8 NNW 6 7 1008.5 - - - - - - - - -
07/11:15pm 29.9 NNW 6 - 1008.2 - - - - - - - - -
07/11:00pm 29.9 NNW 7 8 1008.5 - - - - - - - - -
07/10:30pm 30.0 N 6 7 1008.6 - - - - - - - - -
07/10:15pm 29.9 NNW 6 - 1008.3 - - - - - - - - -
07/10:00pm 29.9 NW 5 6 1008.6 - - - - - - - - -
07/09:30pm 29.9 NW 6 7 1008.2 - - - - - - - - -
07/09:15pm 29.8 NW 6 - 1007.6 - - - - - - - - -
07/09:00pm 30.0 NW 6 7 1007.9 - - - - - - - - -
07/08:30pm 30.0 WNW 6 7 1007.5 - - - - - - - - -
07/08:15pm 30.0 NW 6 - 1007.1 - - - - - - - - -
07/08:00pm 30.0 NW 7 9 1007.3 - - - - - - - - -
07/07:30pm 30.0 NNW 8 9 1007.0 - - - - - - - - -
07/07:15pm 29.9 N 8 - 1006.4 - - - - - - - - -
07/07:00pm 30.0 N 6 10 1006.5 - - - - - - - - -
07/06:30pm 30.1 N 1 4 1006.3 - - - - - - - - -
07/06:15pm 30.1 CALM 0 - 1005.9 - - - - - - - - -
07/06:00pm 30.1 CALM 0 3 1006.1 - - - - - - - - -
07/05:30pm 30.3 NNW 2 4 1005.7 - - - - - - - - -
07/05:15pm 30.4 NNW 4 - 1005.3 - - - - - - - - -
07/05:00pm 30.4 NNW 5 6 1005.5 - - - - - - - - -
07/04:30pm 30.5 NNW 7 8 1005.5 - - - - - - - - -
07/04:15pm 30.5 NNW 6 - 1005.1 - - - - - - - - -
07/04:00pm 30.4 NNW 8 9 1005.4 - - - - - - - - -
07/03:30pm 30.2 NNW 9 11 1005.3 - - - - - - - - -
07/03:15pm 30.4 NNW 9 - 1004.9 - - - - - - - - -
07/03:00pm 30.3 NNW 10 11 1005.3 - - - - - - - - -
07/02:30pm 30.3 NNW 10 11 1005.4 - - - - - - - - -
07/02:15pm 30.3 NNW 10 - 1005.2 - - - - - - - - -
07/02:00pm 30.2 NNW 11 13 1005.6 - - - - - - - - -
07/01:30pm 30.1 NW 11 12 1005.8 - - - - - - - - -
07/01:15pm 30.0 NW 11 - 1005.5 - - - - - - - - -
07/01:00pm 29.9 NNW 12 13 1005.9 - - - - - - - - -
07/12:30pm 30.0 NW 12 14 1006.3 - - - - - - - - -
07/12:15pm 30.0 NW 11 - 1006.2 - - - - - - - - -
07/12:00pm 29.9 NW 10 12 1006.7 - - - - - - - - -
07/11:30am 30.0 NW 11 13 1007.1 - - - - - - - - -
07/11:15am 29.9 NNW 12 - 1006.9 - - - - - - - - -
07/11:00am 30.1 NNW 11 12 1007.5 - - - - - - - - -
07/10:30am 30.0 NNW 12 13 1007.7 - - - - - - - - -
07/10:15am 29.9 NNW 11 - 1007.4 - - - - - - - - -
07/10:00am 30.0 NW 12 14 1007.6 - - - - - - - - -
07/09:30am 29.9 NNW 13 15 1007.6 - - - - - - - - -
07/09:15am 29.9 NNW 14 - 1007.2 - - - - - - - - -
07/09:00am 29.8 NNW 13 15 1007.5 - - - - - - - - -
07/08:30am 29.8 NW 15 16 1007.3 - - - - - - - - -
07/08:15am 30.0 NNW 13 - 1006.8 - - - - - - - - -
07/08:00am 29.9 NNW 13 15 1007.1 - - - - - - - - -
07/07:30am 29.9 NNW 14 17 1006.6 - - - - - - - - -
07/07:15am 29.9 NW 14 - 1006.2 - - - - - - - - -
07/07:00am 29.7 NNW 13 16 1006.3 - - - - - - - - -
07/06:30am 29.6 NW 14 16 1005.8 - - - - - - - - -
07/06:15am 29.6 NW 2 - 1005.3 - - - - - - - - -
07/06:00am 29.6 NW 11 14 1005.5 - - - - - - - - -
07/05:30am 29.6 NW 12 14 1005.1 - - - - - - - - -
07/05:15am 29.6 NW 12 - 1004.7 - - - - - - - - -
07/05:00am 29.6 WNW 12 14 1004.8 - - - - - - - - -
07/04:30am 29.6 NW 13 14 1004.6 - - - - - - - - -
07/04:15am 29.6 NW 12 - 1004.2 - - - - - - - - -
07/04:00am 29.6 NW 14 15 1004.6 - - - - - - - - -
07/03:30am 29.7 WNW 15 17 1004.6 - - - - - - - - -
07/03:15am 29.6 WNW 15 - 1004.4 - - - - - - - - -
07/03:00am 29.6 WNW 15 16 1004.7 - - - - - - - - -
07/02:30am 29.8 WNW 15 18 1004.8 - - - - - - - - -
07/02:15am 29.7 WNW 16 - 1004.5 - - - - - - - - -
07/02:00am 29.6 WNW 15 18 1004.8 - - - - - - - - -
07/01:30am 29.6 NW 17 20 1005.0 - - - - - - - - -
07/01:15am 29.7 NW 16 - 1004.9 - - - - - - - - -
07/01:00am 29.7 NW 16 19 1005.4 - - - - - - - - -
07/12:30am 29.8 NW 16 19 1005.7 - - - - - - - - -
07/12:15am 29.7 NW 16 - 1005.5 - - - - - - - - -
07/12:00am 29.7 NW 16 18 1005.9 - - - - - - - - -
 
Date/Time
EST
Temp

°C
Wind Pressure Rain
since 9am
mm
Weather Cloud Vis
km
Sea
Height
m
Swell
Dir
 
Speed
knots
Gust
knots
hPa Trend Height
m
Period
s
Dir
06/11:30pm 29.7 NW 15 17 1006.2 - - - - - - - - -
06/11:15pm 29.8 NW 16 - 1006.0 - - - - - - - - -
06/11:00pm 29.7 NW 17 19 1006.4 - - - - - - - - -
06/10:30pm 29.8 NW 16 18 1006.5 - - - - - - - - -
06/10:15pm 29.8 NW 16 - 1006.2 - - - - - - - - -
06/10:00pm 29.9 NW 15 17 1006.5 - - - - - - - - -
06/09:30pm 29.8 NNW 15 17 1006.0 - - - - - - - - -
06/09:15pm 29.9 NNW 15 - 1005.6 - - - - - - - - -
06/09:00pm 29.8 NNW 15 17 1005.6 - - - - - - - - -
06/08:30pm 29.9 NNW 15 17 1005.2 - - - - - - - - -
06/08:15pm 29.9 NNW 16 - 1004.8 - - - - - - - - -
06/08:00pm 29.8 NNW 14 16 1004.8 - - - - - - - - -
06/07:30pm 29.8 NNW 14 16 1004.3 - - - - - - - - -
06/07:15pm 29.8 NNW 2 - 1003.9 - - - - - - - - -
06/07:00pm 29.8 NNW 13 16 1004.0 - - - - - - - - -
06/06:39pm 29.9 NW 16 17 1003.9 - - - - - - - - -
06/06:30pm 30.0 NW 1 3 1003.8 - - - - - - - - -
06/06:15pm 30.0 NW 1 - 1003.3 - - - - - - - - -
06/06:00pm 30.0 NW 1 3 1003.4 - - - - - - - - -
06/05:30pm 30.1 NW 13 16 1002.9 - - - - - - - - -
06/05:15pm 29.9 NW 14 - 1002.5 - - - - - - - - -
06/05:00pm 30.0 NNW 14 17 1002.6 - - - - - - - - -
06/04:30pm 30.0 NW 15 17 1002.2 - - - - - - - - -
06/04:15pm 30.0 NNW 15 - 1001.8 - - - - - - - - -
06/04:00pm 30.1 NNW 15 17 1002.2 - - - - - - - - -
06/03:30pm 29.8 NNW 13 15 1002.2 - - - - - - - - -
06/03:15pm 30.0 NNW 13 - 1001.9 - - - - - - - - -
06/03:00pm 29.9 N 14 15 1002.3 - - - - - - - - -
06/02:30pm 29.9 NNW 14 17 1002.5 - - - - - - - - -
06/02:15pm 30.0 N 13 - 1002.5 - - - - - - - - -
06/02:00pm 30.0 NNW 13 15 1002.9 - - - - - - - - -
06/01:30pm 29.8 N 14 16 1003.5 - - - - - - - - -
06/01:15pm 30.1 N 14 - 1003.3 - - - - - - - - -
06/01:00pm 30.0 N 13 15 1003.7 - - - - - - - - -
06/12:30pm 30.0 NNW 14 16 1003.9 - - - - - - - - -
06/12:15pm 30.1 N 14 - 1003.9 - - - - - - - - -
06/12:00pm 29.9 N 13 16 1004.3 - - - - - - - - -
06/11:30am 29.9 N 13 16 1004.5 - - - - - - - - -
06/11:15am 29.8 NNW 13 - 1004.3 - - - - - - - - -
06/11:00am 29.8 NNW 12 15 1004.6 - - - - - - - - -
06/10:30am 29.7 NNW 12 14 1004.8 - - - - - - - - -
06/10:15am 29.7 NNW 14 - 1004.6 - - - - - - - - -
06/10:00am 29.7 NNW 14 15 1004.8 - - - - - - - - -
06/09:30am 29.5 NNW 14 15 1004.9 - - - - - - - - -
06/09:15am 29.5 NNW 15 - 1004.5 - - - - - - - - -
06/09:00am 29.5 NNW 15 17 1004.7 - - - - - - - - -
06/08:30am 29.9 NNW 15 17 1004.5 - - - - - - - - -
06/08:15am 29.8 NNW 15 - 1004.1 - - - - - - - - -
06/08:00am 29.7 NNW 15 17 1004.1 - - - - - - - - -
06/07:30am 29.6 NNW 15 17 1003.9 - - - - - - - - -
06/07:15am 29.6 NNW 15 - 1003.4 - - - - - - - - -
06/07:00am 29.6 NNW 15 18 1003.7 - - - - - - - - -
06/06:30am 29.7 NNW 16 19 1003.2 - - - - - - - - -
06/06:15am 29.7 NNW 15 - 1002.8 - - - - - - - - -
06/06:00am 29.7 NNW 16 19 1002.9 - - - - - - - - -
06/05:30am 28.7 NW 17 21 1002.7 - - - - - - - - -
06/05:15am 29.6 NNW 17 - 1002.3 - - - - - - - - -
06/05:00am 29.6 N 16 18 1002.3 - - - - - - - - -
06/04:30am 29.6 N 19 21 1001.9 - - - - - - - - -
06/04:15am 29.6 N 18 - 1001.5 - - - - - - - - -
06/04:00am 29.6 N 17 19 1001.9 - - - - - - - - -
06/03:30am 29.5 N 17 20 1002.0 - - - - - - - - -
06/03:15am 29.5 N 18 - 1001.4 - - - - - - - - -
06/03:04am 29.5 N 18 19 1001.7 - - - - - - - - -
06/03:00am 29.5 N 1 3 1001.7 - - - - - - - - -
06/02:30am 29.5 N 1 3 1001.5 - - - - - - - - -
06/02:15am 29.6 N 2 - 1001.4 - - - - - - - - -
06/02:00am 29.5 N 1 3 1001.9 - - - - - - - - -
06/01:30am 29.6 N 2 4 1002.0 - - - - - - - - -
06/01:15am 29.5 N 1 - 1001.8 - - - - - - - - -
06/01:00am 29.7 N 1 3 1002.3 - - - - - - - - -
06/12:30am 29.8 N 1 3 1003.1 - - - - - - - - -
06/12:15am 29.7 N 1 - 1003.2 - - - - - - - - -
06/12:00am 29.8 N 1 3 1003.9 - - - - - - - - -
 
Date/Time
EST
Temp

°C
Wind Pressure Rain
since 9am
mm
Weather Cloud Vis
km
Sea
Height
m
Swell
Dir
 
Speed
knots
Gust
knots
hPa Trend Height
m
Period
s
Dir
05/11:30pm 29.7 N 1 3 1004.2 - - - - - - - - -
05/11:15pm 29.9 N 1 - 1004.2 - - - - - - - - -
05/11:00pm 29.8 N 2 3 1004.8 - - - - - - - - -
05/10:30pm 29.8 NNW 1 3 1005.0 - - - - - - - - -
05/10:15pm 29.9 NNW 1 - 1004.5 - - - - - - - - -
05/10:00pm 29.8 NNW 1 3 1004.8 - - - - - - - - -
05/09:30pm 29.8 N 2 3 1004.6 - - - - - - - - -
05/09:15pm 29.7 N 2 - 1004.3 - - - - - - - - -
05/09:00pm 29.8 N 2 4 1004.4 - - - - - - - - -
05/08:30pm 29.8 N 2 3 1004.1 - - - - - - - - -
05/08:15pm 29.8 NNW 2 - 1003.9 - - - - - - - - -
05/08:00pm 29.8 N 2 3 1003.9 - - - - - - - - -
05/07:30pm 29.8 N 1 3 1003.2 - - - - - - - - -
05/07:15pm 29.9 N 2 - 1002.8 - - - - - - - - -
05/07:00pm 29.8 N 1 3 1002.9 - - - - - - - - -
05/06:30pm 30.0 N 2 19 1002.5 - - - - - - - - -
05/06:15pm 29.9 N 16 - 1002.1 - - - - - - - - -
05/06:00pm 30.0 N 17 19 1002.2 - - - - - - - - -
05/05:30pm 30.0 NNW 17 19 1002.2 - - - - - - - - -
05/05:15pm 29.9 NNW 16 - 1001.9 - - - - - - - - -
05/05:00pm 29.9 NNW 16 18 1002.3 - - - - - - - - -
05/04:30pm 29.8 NNW 14 16 1002.2 - - - - - - - - -
05/04:15pm 29.9 NNW 14 - 1001.8 - - - - - - - - -
05/04:00pm 29.9 NNW 15 16 1001.9 - - - - - - - - -
05/03:30pm 30.1 NNW 16 17 1002.0 - - - - - - - - -
05/03:15pm 29.8 NNW 15 - 1002.0 - - - - - - - - -
05/03:00pm 30.0 NW 15 16 1002.3 - - - - - - - - -
05/02:30pm 30.2 NNW 15 16 1002.4 - - - - - - - - -
05/02:15pm 29.8 NNW 14 - 1002.2 - - - - - - - - -
05/02:00pm 29.8 NNW 14 16 1002.6 - - - - - - - - -
05/01:30pm 29.9 NNW 13 14 1003.2 - - - - - - - - -
05/01:15pm 30.2 NW 13 - 1003.1 - - - - - - - - -
05/01:00pm 30.0 NW 13 15 1003.5 - - - - - - - - -
05/12:30pm 30.1 NNW 14 16 1003.7 - - - - - - - - -
05/12:15pm 30.2 NNW 15 - 1003.6 - - - - - - - - -
05/12:00pm 30.2 NW 15 18 1004.0 - - - - - - - - -
05/11:30am 29.9 NW 16 19 1004.3 - - - - - - - - -
05/11:15am 30.1 NW 16 - 1004.1 - - - - - - - - -
05/11:00am 30.2 NW 17 20 1004.6 - - - - - - - - -
05/10:30am 29.9 NW 17 19 1004.9 - - - - - - - - -
05/10:15am 30.1 NW 16 - 1004.6 - - - - - - - - -
05/10:00am 30.0 NW 17 19 1004.9 - - - - - - - - -

Other Formats:

Comma delimited format used in spreadsheet applications
http://www.bom.gov.au/fwo/IDQ60701/IDQ60701.94289.axf

JavaScript Object Notation format (JSON) in row-major order
http://www.bom.gov.au/fwo/IDQ60701/IDQ60701.94289.json